WetterOnline ( https://www.wetteronline.de )

Wetter aktuell Feldberger Seenlandschaft

Aktuelles Wetter: Feldberg (115m)

6-stündlich | Neueste Meldungen
Ortszeit Temperatur Wetter
So, 18.08. 8:00 18.1° C bewölkt
So, 18.08. 2:00 17.9° C bedeckt
Sa, 17.08. 20:00 21.3° C leicht bewölkt
Sa, 17.08. 14:00 21.4° C bewölkt
Sa, 17.08. 8:00 15.4° C wolkig
Sa, 17.08. 2:00 11.8° C leicht bewölkt
Fr, 16.08. 20:00 19.1° C leicht bewölkt
Fr, 16.08. 14:00 20.5° C wolkig
Ortszeit Temperatur Wetter
So, 18.08. 10:00 19.8° C leicht bewölkt
So, 18.08. 9:50 19.8° C leicht bewölkt
So, 18.08. 9:40 19.5° C Sprühregen
So, 18.08. 9:30 19.6° C bewölkt
So, 18.08. 9:20 19.6° C bewölkt
So, 18.08. 9:10 19.1° C bewölkt
So, 18.08. 9:00 18.9° C bewölkt
So, 18.08. 8:30 18.5° C wolkig
So, 18.08. 8:00 18.1° C bewölkt
So, 18.08. 7:30 17.7° C bewölkt
So, 18.08. 7:00 17.5° C wolkig
Ortszeit Relative Feuchte Sichtweite
So, 18.08. 8:00 79% 29 km
So, 18.08. 2:00 74% 30 km
Sa, 17.08. 20:00 65% 30 km
Sa, 17.08. 14:00 59% 30 km
Sa, 17.08. 8:00 71% 28 km
Sa, 17.08. 2:00 100% 1.5 km
Fr, 16.08. 20:00 63% 35 km
Fr, 16.08. 14:00 64% 27 km
Ortszeit Relative Feuchte Sichtweite
So, 18.08. 10:00 76% 26 km
So, 18.08. 9:50 76% -
So, 18.08. 9:40 78% -
So, 18.08. 9:30 76% 28 km
So, 18.08. 9:20 76% -
So, 18.08. 9:10 77% -
So, 18.08. 9:00 78% 29 km
So, 18.08. 8:30 79% 29 km
So, 18.08. 8:00 79% 29 km
So, 18.08. 7:30 80% 28 km
So, 18.08. 7:00 80% 29 km
Ortszeit Niederschlagsmenge Niederschlagsart
So, 18.08. 8:00 0.1 l/m2 in 12 Std. Regen
So, 18.08. 2:00 0.0 l/m2 in 6 Std. -
Sa, 17.08. 20:00 0.1 l/m2 in 12 Std. Regen
Sa, 17.08. 14:00 0.1 l/m2 in 6 Std. Regen
Sa, 17.08. 8:00 0.0 l/m2 in 12 Std. -
Sa, 17.08. 2:00 0.0 l/m2 in 6 Std. -
Fr, 16.08. 20:00 0.1 l/m2 in 12 Std. -
Fr, 16.08. 14:00 0.1 l/m2 in 6 Std. Regen
Ortszeit Niederschlagsmenge Niederschlagsart
So, 18.08. 10:00 0.1 l/m2 in 1 Std. Regen
So, 18.08. 9:50 keine Meldung -
So, 18.08. 9:40 keine Meldung -
So, 18.08. 9:30 0.0 l/m2 in 1 Std. -
So, 18.08. 9:20 keine Meldung -
So, 18.08. 9:10 keine Meldung -
So, 18.08. 9:00 0.1 l/m2 in 1 Std. Sprühregen
So, 18.08. 8:30 0.1 l/m2 in 1 Std. Schnee
So, 18.08. 8:00 0.1 l/m2 in 1 Std. Regen
So, 18.08. 7:30 0.0 l/m2 in 1 Std. -
So, 18.08. 7:00 0.1 l/m2 in 1 Std. Regen
Ortszeit Stärke Spitze Richtung
km/h Bft. km/h Grad Sektor
So, 18.08. 8:00 7 2 14 190° S
So, 18.08. 2:00 4 1 18 180° S
Sa, 17.08. 20:00 2 1 31 20° N
Sa, 17.08. 14:00 14 3 25 150° SO
Sa, 17.08. 8:00 9 2 19 160° S
Sa, 17.08. 2:00 0 0 11 - -
Fr, 16.08. 20:00 7 2 32 300° NW
Fr, 16.08. 14:00 22 4 32 250° W
Ortszeit Stärke Spitze Richtung
km/h Bft. km/h Grad Sektor
So, 18.08. 10:00 13 3 20 180° S
So, 18.08. 9:50 13 3 - 180° S
So, 18.08. 9:40 14 3 - 190° S
So, 18.08. 9:30 11 2 18 200° S
So, 18.08. 9:20 11 2 - 200° S
So, 18.08. 9:10 13 3 - 190° S
So, 18.08. 9:00 9 2 15 190° S
So, 18.08. 8:30 7 2 11 190° S
So, 18.08. 8:00 7 2 11 190° S
So, 18.08. 7:30 6 1 9 190° S
So, 18.08. 7:00 6 1 9 160° S
Ortszeit Untergrenze Bedeckung Gattung
total tief tief mittel hoch
So, 18.08. 8:00 2700 m 7/8 7/8 - - -
So, 18.08. 2:00 3600 m 8/8 8/8 - - -
Sa, 17.08. 20:00 1800 m 5/8 3/8 - - -
Sa, 17.08. 14:00 1800 m 7/8 7/8 - - -
Sa, 17.08. 8:00 3900 m 6/8 6/8 - - -
Sa, 17.08. 2:00 8400 m 6/8 0/8 - - -
Fr, 16.08. 20:00 8100 m 6/8 0/8 - - -
Fr, 16.08. 14:00 2700 m 5/8 5/8 - - -
Ortszeit Bedeckungsgrad in Achtel und Wolkenuntergrenze
So, 18.08. 10:00 2(960m)
So, 18.08. 9:50 2(960m)
So, 18.08. 9:40 5(960m)
So, 18.08. 9:30 6(930m) 7(2700m)
So, 18.08. 9:20 6(930m) 7(2700m)
So, 18.08. 9:10 4(930m) 7(2700m)
So, 18.08. 9:00 7(2700m)
So, 18.08. 8:30 5(2700m)
So, 18.08. 8:00 7(2700m)
So, 18.08. 7:30 7(2700m)
So, 18.08. 7:00 6(3000m)
Ortszeit Luftdruck NN (hPa) Tendenz (hPa in 3 Std.)
So, 18.08. 8:00 1007 - 0,3
So, 18.08. 2:00 1008 - 0,1
Sa, 17.08. 20:00 1008 - 0,5
Sa, 17.08. 14:00 1009 - 1,8
Sa, 17.08. 8:00 1012 - 0,8
Sa, 17.08. 2:00 1014 - 1,0
Fr, 16.08. 20:00 1015 + 0,2
Fr, 16.08. 14:00 1015 + 0,1
Ortszeit Luftdruck NN (hPa) Tendenz (hPa in 3 Std.)
So, 18.08. 10:00 1007 - 0,4
So, 18.08. 9:50 1007 keine Meldung
So, 18.08. 9:40 1007 keine Meldung
So, 18.08. 9:30 1007 - 0,6
So, 18.08. 9:20 1007 keine Meldung
So, 18.08. 9:10 1007 keine Meldung
So, 18.08. 9:00 1007 - 0,6
So, 18.08. 8:30 1007 - 0,4
So, 18.08. 8:00 1007 - 0,3
So, 18.08. 7:30 1007 - 0,4
So, 18.08. 7:00 1007 - 0,8
Ortszeit Schneehöhe (cm)
So, 18.08. 8:00 -
So, 18.08. 2:00 -
Sa, 17.08. 20:00 -
Sa, 17.08. 14:00 -
Sa, 17.08. 8:00 -
Sa, 17.08. 2:00 -
Fr, 16.08. 20:00 -
Fr, 16.08. 14:00 -
Ortszeit Schneehöhe (cm)
So, 18.08. 10:00 -
So, 18.08. 9:50 -
So, 18.08. 9:40 -
So, 18.08. 9:30 -
So, 18.08. 9:20 -
So, 18.08. 9:10 -
So, 18.08. 9:00 -
So, 18.08. 8:30 -
So, 18.08. 8:00 -
So, 18.08. 7:30 -
So, 18.08. 7:00 -
Link zu dieser Seite / Seite empfehlen

Das Wetter in ...